sensor_id;sensor_type;location;lat;lon;timestamp;temperature;humidity
62853;DHT22;49205;44.868;38.140;2024-03-29T09:36:17;14.80;80.60
62853;DHT22;49205;44.868;38.140;2024-03-29T09:38:47;14.60;81.50
62853;DHT22;49205;44.868;38.140;2024-03-29T09:41:17;14.60;83.10
62853;DHT22;49205;44.868;38.140;2024-03-29T09:43:48;14.60;83.90
62853;DHT22;49205;44.868;38.140;2024-03-29T09:46:18;14.60;85.10
62853;DHT22;49205;44.868;38.140;2024-03-29T09:48:47;14.60;86.10
62853;DHT22;49205;44.868;38.140;2024-03-29T09:51:18;14.50;87.80
62853;DHT22;49205;44.868;38.140;2024-03-29T09:53:49;14.50;88.60
62853;DHT22;49205;44.868;38.140;2024-03-29T09:56:18;14.50;89.00
62853;DHT22;49205;44.868;38.140;2024-03-29T09:58:48;14.40;90.20
62853;DHT22;49205;44.868;38.140;2024-03-29T10:01:17;14.40;90.00
62853;DHT22;49205;44.868;38.140;2024-03-29T10:03:48;14.40;90.20
62853;DHT22;49205;44.868;38.140;2024-03-29T10:06:19;14.30;90.20
62853;DHT22;49205;44.868;38.140;2024-03-29T10:08:50;14.30;90.50
62853;DHT22;49205;44.868;38.140;2024-03-29T10:11:21;14.30;90.90
62853;DHT22;49205;44.868;38.140;2024-03-29T10:13:51;14.20;91.20
62853;DHT22;49205;44.868;38.140;2024-03-29T10:16:20;14.20;91.50
62853;DHT22;49205;44.868;38.140;2024-03-29T10:18:51;14.20;91.80
62853;DHT22;49205;44.868;38.140;2024-03-29T10:21:24;14.20;91.90
62853;DHT22;49205;44.868;38.140;2024-03-29T10:23:52;14.20;92.20
62853;DHT22;49205;44.868;38.140;2024-03-29T10:26:22;14.20;93.00
62853;DHT22;49205;44.868;38.140;2024-03-29T10:28:57;14.20;92.50
62853;DHT22;49205;44.868;38.140;2024-03-29T10:31:38;14.20;92.90
62853;DHT22;49205;44.868;38.140;2024-03-29T10:34:09;14.30;93.60
62853;DHT22;49205;44.868;38.140;2024-03-29T10:36:38;14.30;93.80
62853;DHT22;49205;44.868;38.140;2024-03-29T10:39:11;14.40;94.00
62853;DHT22;49205;44.868;38.140;2024-03-29T10:41:46;14.40;94.20
62853;DHT22;49205;44.868;38.140;2024-03-29T10:44:14;14.50;93.70
62853;DHT22;49205;44.868;38.140;2024-03-29T10:46:43;14.50;94.60
62853;DHT22;49205;44.868;38.140;2024-03-29T10:49:14;14.60;94.30
62853;DHT22;49205;44.868;38.140;2024-03-29T10:51:44;14.60;95.10
62853;DHT22;49205;44.868;38.140;2024-03-29T10:54:13;14.70;94.40
62853;DHT22;49205;44.868;38.140;2024-03-29T10:56:43;14.70;94.60
62853;DHT22;49205;44.868;38.140;2024-03-29T11:01:59;14.90;94.40
62853;DHT22;49205;44.868;38.140;2024-03-29T11:04:32;15.00;94.70
62853;DHT22;49205;44.868;38.140;2024-03-29T11:07:04;15.10;94.40
62853;DHT22;49205;44.868;38.140;2024-03-29T11:09:34;15.10;94.50
62853;DHT22;49205;44.868;38.140;2024-03-29T11:12:05;15.20;94.50
62853;DHT22;49205;44.868;38.140;2024-03-29T11:14:49;15.20;94.70
62853;DHT22;49205;44.868;38.140;2024-03-29T11:17:18;15.30;94.70
62853;DHT22;49205;44.868;38.140;2024-03-29T11:19:48;15.30;94.40
62853;DHT22;49205;44.868;38.140;2024-03-29T11:22:17;15.40;94.40
62853;DHT22;49205;44.868;38.140;2024-03-29T11:24:47;15.40;94.50
62853;DHT22;49205;44.868;38.140;2024-03-29T11:27:19;15.40;94.20
62853;DHT22;49205;44.868;38.140;2024-03-29T11:29:47;15.50;94.50
62853;DHT22;49205;44.868;38.140;2024-03-29T11:32:40;15.50;94.30
62853;DHT22;49205;44.868;38.140;2024-03-29T11:35:13;15.60;94.60
62853;DHT22;49205;44.868;38.140;2024-03-29T11:37:37;15.60;94.40
62853;DHT22;49205;44.868;38.140;2024-03-29T11:40:12;15.60;94.40
62853;DHT22;49205;44.868;38.140;2024-03-29T11:42:46;15.60;94.40
62853;DHT22;49205;44.868;38.140;2024-03-29T11:45:15;15.70;94.40
62853;DHT22;49205;44.868;38.140;2024-03-29T11:47:46;15.80;94.50
62853;DHT22;49205;44.868;38.140;2024-03-29T11:50:15;15.80;94.50
62853;DHT22;49205;44.868;38.140;2024-03-29T11:52:44;15.80;94.40
62853;DHT22;49205;44.868;38.140;2024-03-29T11:55:13;15.90;94.40
62853;DHT22;49205;44.868;38.140;2024-03-29T11:57:42;15.90;94.70
62853;DHT22;49205;44.868;38.140;2024-03-29T12:00:12;16.00;94.70
62853;DHT22;49205;44.868;38.140;2024-03-29T12:02:41;16.00;94.70
62853;DHT22;49205;44.868;38.140;2024-03-29T12:05:11;16.10;94.60
62853;DHT22;49205;44.868;38.140;2024-03-29T12:07:40;16.10;94.60
62853;DHT22;49205;44.868;38.140;2024-03-29T12:10:09;16.10;94.70
62853;DHT22;49205;44.868;38.140;2024-03-29T12:12:39;16.20;94.90
62853;DHT22;49205;44.868;38.140;2024-03-29T12:15:09;16.30;94.80
62853;DHT22;49205;44.868;38.140;2024-03-29T12:17:38;16.40;94.80
62853;DHT22;49205;44.868;38.140;2024-03-29T12:20:10;16.60;94.80
62853;DHT22;49205;44.868;38.140;2024-03-29T12:22:40;16.70;94.80
62853;DHT22;49205;44.868;38.140;2024-03-29T12:25:09;16.80;94.70
62853;DHT22;49205;44.868;38.140;2024-03-29T12:27:38;16.90;94.50
62853;DHT22;49205;44.868;38.140;2024-03-29T12:30:07;17.00;94.50
62853;DHT22;49205;44.868;38.140;2024-03-29T12:32:36;17.10;94.50
62853;DHT22;49205;44.868;38.140;2024-03-29T12:35:15;17.20;94.40
62853;DHT22;49205;44.868;38.140;2024-03-29T12:37:50;17.40;94.40
62853;DHT22;49205;44.868;38.140;2024-03-29T12:40:24;17.50;94.30
62853;DHT22;49205;44.868;38.140;2024-03-29T12:42:54;17.70;94.20
62853;DHT22;49205;44.868;38.140;2024-03-29T12:45:24;17.80;93.90
